MSC Luisa — H9XU — position and weather

sailwx.info

Track history (hours):
 
Tides and Currents Weather Stations Pressure Air Temp Water Temp Dewpoint Dewpoint Depression Visibility Wind Speed Wind Dir Waves Ship Positions

MSC Luisa

Last reported at 2014-Aug-23 03:33 UTC. Time now 2014-Aug-23 05:36 UTC.
Position N 39°18' W 070°57'.

Length 300 m; draft 12 m.

Type: Ship. MMSI: 355308000.

Date/timePositionNaut miles runAvg speedWind from/ knotsBaromVisibWave heightAir tempDewpointWater temp
2014-Aug-23 03:33N 39°18' W 070°57'1817.7
2014-Aug-23 02:33N 39°28' W 070°38'1817.6
2014-Aug-23 01:33N 39°38' W 070°19'1818.0
2014-Aug-23 00:33N 39°48' W 069°60'1817.9
2014-Aug-22 23:32N 39°58' W 069°40'1717.8
2014-Aug-22 22:33N 40°08' W 069°21'1818.0
2014-Aug-22 21:33N 40°18' W 069°02'1716.6
2014-Aug-22 20:33N 40°35' W 069°00'1716.7
2014-Aug-22 19:32N 40°52' W 069°04'1717.4
2014-Aug-22 18:34N 41°07' W 069°15'1817.6
2014-Aug-22 17:33N 41°23' W 069°25'1817.9
2014-Aug-22 16:32N 41°39' W 069°36'5016.7
2014-Aug-22 13:32N 42°18' W 070°18'2119.3
2014-Aug-22 12:29N 42°22' W 070°45'10 9.9
2014-Aug-22 11:31N 42°20' W 070°58'3 0.1
2014-Aug-21 13:20N 42°21' W 071°01'5 6.2
2014-Aug-21 12:33N 42°22' W 070°55'8 8.3
2014-Aug-21 11:33N 42°23' W 070°44'7 7.1
2014-Aug-21 10:33N 42°22' W 070°34'1312.6
2014-Aug-21 09:33N 42°21' W 070°17'4314.1
2014-Aug-21 06:30N 41°48' W 069°39'1515.2
2014-Aug-21 05:32N 41°35' W 069°30'1414.5
2014-Aug-21 04:33N 41°23' W 069°22'1514.2
2014-Aug-21 03:32N 41°10' W 069°13'2114.7
2014-Aug-21 02:08N 40°51' W 069°01'1014.9
2014-Aug-21 01:29N 40°42' W 069°00'1413.6
2014-Aug-21 00:29N 40°29' W 069°07'1314.6
2014-Aug-20 23:34N 40°25' W 069°24'1414.5
2014-Aug-20 22:34N 40°25' W 069°43'1514.6
2014-Aug-20 21:33N 40°25' W 070°02'1615.9
2014-Aug-20 20:34N 40°24' W 070°23'1716.6
2014-Aug-20 19:34N 40°24' W 070°45'1716.5
2014-Aug-20 18:34N 40°24' W 071°06'1716.8
2014-Aug-20 17:33N 40°23' W 071°28'1717.1
2014-Aug-20 16:33N 40°23' W 071°51'1717.1
2014-Aug-20 15:34N 40°23' W 072°13'1817.9
2014-Aug-20 14:33N 40°22' W 072°37'1818.0
2014-Aug-20 13:33N 40°22' W 073°01'1817.7
2014-Aug-20 12:33N 40°24' W 073°24'1916.8
2014-Aug-20 11:26N 40°26' W 073°48'1213.7
2014-Aug-20 10:33N 40°33' W 074°02'8 7.9
2014-Aug-20 09:31N 40°39' W 074°09'2 1.9
2014-Aug-20 08:13N 40°41' W 074°09'0 0.0
2014-Aug-20 07:33N 40°41' W 074°09'0 0.0
2014-Aug-20 05:08N 40°41' W 074°09'0 0.0
2014-Aug-20 04:26N 40°41' W 074°09'0 0.0
2014-Aug-20 03:25N 40°41' W 074°09'0 0.0
2014-Aug-20 02:25N 40°41' W 074°09'0 0.0
2014-Aug-20 01:33N 40°41' W 074°09'0 0.0
2014-Aug-20 00:33N 40°41' W 074°09'0 0.0
2014-Aug-19 22:29N 40°41' W 074°09'0 0.0
2014-Aug-19 11:21N 40°41' W 074°09'0 0.0
2014-Aug-19 10:30N 40°41' W 074°09'3 2.1
2014-Aug-19 09:17N 40°39' W 074°09'4 5.7
2014-Aug-19 08:33N 40°38' W 074°03'60 9.9
2014-Aug-19 02:29N 40°30' W 072°45'1212.6
2014-Aug-19 01:33N 40°31' W 072°29'1212.3
2014-Aug-19 00:33N 40°31' W 072°13'1212.0
2014-Aug-18 23:33N 40°31' W 071°57'1212.1
2014-Aug-18 22:33N 40°31' W 071°41'1712.3
2014-Aug-18 21:09N 40°32' W 071°19'  
2014-Aug-14 01:26N 41°44' W 031°11'2016.9
2014-Aug-14 00:14N 41°42' W 030°44'1817.1
2014-Aug-13 23:09N 41°40' W 030°19'11716.9
2014-Aug-13 16:15N 41°27' W 027°44'  
Track history (hours):
 
Tides and Currents Weather Stations Pressure Air Temp Water Temp Dewpoint Dewpoint Depression Visibility Wind Speed Wind Dir Waves Ship Positions

MSC Luisa

Last reported at 2014-Aug-23 03:33 UTC. Time now 2014-Aug-23 05:36 UTC.
Position N 39°18' W 070°57'.

Length 300 m; draft 12 m.

Type: Ship. MMSI: 355308000.

Date/timePositionNaut miles runAvg speedWind from/ knotsBaromVisibWave heightAir tempDewpointWater temp
2014-Aug-23 03:33N 39°18' W 070°57'1817.7
2014-Aug-23 02:33N 39°28' W 070°38'1817.6
2014-Aug-23 01:33N 39°38' W 070°19'1818.0
2014-Aug-23 00:33N 39°48' W 069°60'1817.9
2014-Aug-22 23:32N 39°58' W 069°40'1717.8
2014-Aug-22 22:33N 40°08' W 069°21'1818.0
2014-Aug-22 21:33N 40°18' W 069°02'1716.6
2014-Aug-22 20:33N 40°35' W 069°00'1716.7
2014-Aug-22 19:32N 40°52' W 069°04'1717.4
2014-Aug-22 18:34N 41°07' W 069°15'1817.6
2014-Aug-22 17:33N 41°23' W 069°25'1817.9
2014-Aug-22 16:32N 41°39' W 069°36'5016.7
2014-Aug-22 13:32N 42°18' W 070°18'2119.3
2014-Aug-22 12:29N 42°22' W 070°45'10 9.9
2014-Aug-22 11:31N 42°20' W 070°58'3 0.1
2014-Aug-21 13:20N 42°21' W 071°01'5 6.2
2014-Aug-21 12:33N 42°22' W 070°55'8 8.3
2014-Aug-21 11:33N 42°23' W 070°44'7 7.1
2014-Aug-21 10:33N 42°22' W 070°34'1312.6
2014-Aug-21 09:33N 42°21' W 070°17'4314.1
2014-Aug-21 06:30N 41°48' W 069°39'1515.2
2014-Aug-21 05:32N 41°35' W 069°30'1414.5
2014-Aug-21 04:33N 41°23' W 069°22'1514.2
2014-Aug-21 03:32N 41°10' W 069°13'2114.7
2014-Aug-21 02:08N 40°51' W 069°01'1014.9
2014-Aug-21 01:29N 40°42' W 069°00'1413.6
2014-Aug-21 00:29N 40°29' W 069°07'1314.6
2014-Aug-20 23:34N 40°25' W 069°24'1414.5
2014-Aug-20 22:34N 40°25' W 069°43'1514.6
2014-Aug-20 21:33N 40°25' W 070°02'1615.9
2014-Aug-20 20:34N 40°24' W 070°23'1716.6
2014-Aug-20 19:34N 40°24' W 070°45'1716.5
2014-Aug-20 18:34N 40°24' W 071°06'1716.8
2014-Aug-20 17:33N 40°23' W 071°28'1717.1
2014-Aug-20 16:33N 40°23' W 071°51'1717.1
2014-Aug-20 15:34N 40°23' W 072°13'1817.9
2014-Aug-20 14:33N 40°22' W 072°37'1818.0
2014-Aug-20 13:33N 40°22' W 073°01'1817.7
2014-Aug-20 12:33N 40°24' W 073°24'1916.8
2014-Aug-20 11:26N 40°26' W 073°48'1213.7
2014-Aug-20 10:33N 40°33' W 074°02'8 7.9
2014-Aug-20 09:31N 40°39' W 074°09'2 1.9
2014-Aug-20 08:13N 40°41' W 074°09'0 0.0
2014-Aug-20 07:33N 40°41' W 074°09'0 0.0
2014-Aug-20 05:08N 40°41' W 074°09'0 0.0
2014-Aug-20 04:26N 40°41' W 074°09'0 0.0
2014-Aug-20 03:25N 40°41' W 074°09'0 0.0
2014-Aug-20 02:25N 40°41' W 074°09'0 0.0
2014-Aug-20 01:33N 40°41' W 074°09'0 0.0
2014-Aug-20 00:33N 40°41' W 074°09'0 0.0
2014-Aug-19 22:29N 40°41' W 074°09'0 0.0
2014-Aug-19 11:21N 40°41' W 074°09'0 0.0
2014-Aug-19 10:30N 40°41' W 074°09'3 2.1
2014-Aug-19 09:17N 40°39' W 074°09'4 5.7
2014-Aug-19 08:33N 40°38' W 074°03'60 9.9
2014-Aug-19 02:29N 40°30' W 072°45'1212.6
2014-Aug-19 01:33N 40°31' W 072°29'1212.3
2014-Aug-19 00:33N 40°31' W 072°13'1212.0
2014-Aug-18 23:33N 40°31' W 071°57'1212.1
2014-Aug-18 22:33N 40°31' W 071°41'1712.3
2014-Aug-18 21:09N 40°32' W 071°19'  
2014-Aug-14 01:26N 41°44' W 031°11'2016.9
2014-Aug-14 00:14N 41°42' W 030°44'1817.1
2014-Aug-13 23:09N 41°40' W 030°19'11716.9
2014-Aug-13 16:15N 41°27' W 027°44'  

Dump ship's entire track history